createdAt,value
2023-05-14T00:01:47.578Z,99.44
2023-05-14T00:04:17.268Z,98.35
2023-05-14T00:06:47.620Z,99.80
2023-05-14T00:09:17.096Z,98.72
2023-05-14T00:11:46.617Z,96.05
2023-05-14T00:14:16.267Z,93.62
2023-05-14T00:16:45.995Z,92.78
2023-05-14T00:19:17.438Z,96.07
2023-05-14T00:21:49.468Z,95.82
2023-05-14T00:24:18.967Z,97.13
2023-05-14T00:26:49.700Z,97.45
2023-05-14T00:29:21.568Z,99.96
2023-05-14T00:31:53.302Z,97.39
2023-05-14T00:34:24.149Z,97.12
2023-05-14T00:36:55.480Z,99.92
2023-05-14T00:39:26.192Z,100.00
2023-05-14T00:41:58.033Z,100.00
2023-05-14T00:44:29.548Z,100.00
2023-05-14T00:47:00.939Z,100.00
2023-05-14T00:49:32.283Z,99.84
2023-05-14T00:52:03.162Z,100.00
2023-05-14T00:54:35.163Z,99.89
2023-05-14T00:57:06.043Z,100.00
2023-05-14T00:59:36.308Z,100.00
2023-05-14T01:02:07.354Z,100.00
2023-05-14T01:04:39.280Z,100.00
2023-05-14T01:07:22.139Z,99.71
2023-05-14T01:10:10.493Z,96.07
2023-05-14T01:12:58.990Z,99.33
2023-05-14T01:15:34.711Z,99.73
2023-05-14T01:18:05.985Z,99.64
2023-05-14T01:20:37.837Z,99.98
2023-05-14T01:23:07.730Z,100.00
2023-05-14T01:25:37.806Z,100.00
2023-05-14T01:28:22.210Z,100.00
2023-05-14T01:30:54.622Z,100.00
2023-05-14T01:33:30.601Z,100.00
2023-05-14T01:36:02.292Z,100.00
2023-05-14T01:38:35.696Z,100.00
2023-05-14T01:41:08.007Z,100.00
2023-05-14T01:43:41.872Z,100.00
2023-05-14T01:46:18.725Z,100.00
2023-05-14T01:48:49.435Z,100.00
2023-05-14T01:51:19.804Z,100.00
2023-05-14T01:53:51.093Z,100.00
2023-05-14T01:56:26.467Z,100.00
2023-05-14T01:58:57.946Z,100.00
2023-05-14T02:01:27.628Z,100.00
2023-05-14T02:03:58.822Z,100.00
2023-05-14T02:06:31.062Z,100.00
2023-05-14T02:09:01.167Z,100.00
2023-05-14T02:11:31.659Z,100.00
2023-05-14T02:14:03.272Z,100.00
2023-05-14T02:16:33.160Z,100.00
2023-05-14T02:19:03.933Z,100.00
2023-05-14T02:21:33.682Z,100.00
2023-05-14T02:24:04.421Z,99.87
2023-05-14T02:26:33.503Z,99.65
2023-05-14T02:29:03.940Z,99.97
2023-05-14T02:31:37.222Z,100.00
2023-05-14T02:34:07.712Z,100.00
2023-05-14T02:36:37.769Z,100.00
2023-05-14T02:39:07.587Z,100.00
2023-05-14T02:41:37.572Z,100.00
2023-05-14T02:44:08.527Z,100.00
2023-05-14T02:46:39.638Z,100.00
2023-05-14T02:49:10.430Z,100.00
2023-05-14T02:51:41.161Z,100.00
2023-05-14T02:54:10.557Z,100.00
2023-05-14T02:56:40.494Z,100.00
2023-05-14T02:59:09.971Z,100.00
2023-05-14T03:01:40.629Z,100.00
2023-05-14T03:04:12.097Z,100.00
2023-05-14T03:06:44.869Z,100.00
2023-05-14T03:09:16.479Z,100.00
2023-05-14T03:11:46.992Z,100.00
2023-05-14T03:14:15.999Z,100.00
2023-05-14T03:16:45.952Z,100.00
2023-05-14T03:19:15.526Z,100.00
2023-05-14T03:21:46.552Z,100.00
2023-05-14T03:24:16.570Z,100.00
2023-05-14T03:26:46.504Z,100.00
2023-05-14T03:29:18.726Z,100.00
2023-05-14T03:31:48.543Z,100.00
2023-05-14T03:34:18.267Z,100.00
2023-05-14T03:36:48.824Z,100.00
2023-05-14T03:39:22.415Z,100.00
2023-05-14T03:41:53.136Z,100.00
2023-05-14T03:44:23.126Z,100.00
2023-05-14T03:46:53.609Z,100.00
2023-05-14T03:49:22.818Z,100.00
2023-05-14T03:51:53.003Z,100.00
2023-05-14T03:54:22.443Z,100.00
2023-05-14T03:56:51.841Z,100.00
2023-05-14T03:59:22.050Z,100.00
2023-05-14T04:01:51.466Z,100.00
2023-05-14T04:04:22.102Z,100.00
2023-05-14T04:06:51.255Z,100.00
2023-05-14T04:09:20.763Z,100.00
2023-05-14T04:11:50.282Z,100.00
2023-05-14T04:14:19.673Z,100.00
2023-05-14T04:16:48.610Z,100.00
2023-05-14T04:19:18.789Z,100.00
2023-05-14T04:21:47.798Z,100.00
2023-05-14T04:24:17.690Z,100.00
2023-05-14T04:26:46.951Z,100.00
2023-05-14T04:29:15.778Z,99.88
2023-05-14T04:31:44.913Z,99.64
2023-05-14T04:34:14.017Z,98.54
2023-05-14T04:36:42.987Z,98.27
2023-05-14T04:39:12.903Z,98.18
2023-05-14T04:41:42.993Z,97.45
2023-05-14T04:44:13.310Z,97.57
2023-05-14T04:46:42.011Z,97.69
2023-05-14T04:49:12.963Z,97.97
2023-05-14T04:51:42.445Z,98.27
2023-05-14T04:54:12.220Z,97.32
2023-05-14T04:56:41.552Z,96.93
2023-05-14T04:59:10.653Z,96.32
2023-05-14T05:01:39.465Z,94.36
2023-05-14T05:04:08.220Z,93.92
2023-05-14T05:06:38.357Z,92.30
2023-05-14T05:09:07.454Z,90.48
2023-05-14T05:11:36.449Z,90.35
2023-05-14T05:14:05.201Z,87.13
2023-05-14T05:16:34.808Z,81.55
2023-05-14T05:19:04.004Z,80.95
2023-05-14T05:21:32.825Z,77.99
2023-05-14T05:24:01.596Z,78.95
2023-05-14T05:26:30.607Z,77.90
2023-05-14T05:28:59.804Z,73.51
2023-05-14T05:31:28.403Z,71.24
2023-05-14T05:33:57.476Z,68.78
2023-05-14T05:36:26.477Z,67.42
2023-05-14T05:38:55.601Z,67.19
2023-05-14T05:41:24.346Z,67.04
2023-05-14T05:43:53.127Z,66.53
2023-05-14T05:46:21.846Z,67.34
2023-05-14T05:48:50.905Z,65.72
2023-05-14T05:51:19.487Z,65.81
2023-05-14T05:53:48.586Z,63.53
2023-05-14T05:56:17.176Z,62.01
2023-05-14T05:58:45.652Z,60.09
2023-05-14T06:01:14.355Z,58.79
2023-05-14T06:03:43.120Z,57.59
2023-05-14T06:06:11.609Z,56.14
2023-05-14T06:08:40.185Z,54.93
2023-05-14T06:11:08.666Z,51.88
2023-05-14T06:13:37.145Z,50.56
2023-05-14T06:16:05.883Z,48.17
2023-05-14T06:18:34.365Z,50.69
2023-05-14T06:21:03.206Z,47.71
2023-05-14T06:23:31.693Z,47.23
2023-05-14T06:26:00.284Z,45.31
2023-05-14T06:28:28.722Z,47.17
2023-05-14T06:30:57.433Z,46.60
2023-05-14T06:33:31.254Z,45.41
2023-05-14T06:36:05.260Z,44.45
2023-05-14T06:38:33.937Z,41.68
2023-05-14T06:41:02.666Z,39.30
2023-05-14T06:43:31.406Z,39.15
2023-05-14T06:46:00.611Z,38.30
2023-05-14T06:48:31.204Z,38.83
2023-05-14T06:51:00.401Z,39.22
2023-05-14T06:53:29.667Z,39.63
2023-05-14T06:55:59.988Z,39.71
2023-05-14T06:58:29.061Z,39.41
2023-05-14T07:00:58.707Z,38.05
2023-05-14T07:03:27.604Z,37.47
2023-05-14T07:05:56.136Z,37.99
2023-05-14T07:08:24.820Z,38.06
2023-05-14T07:10:54.217Z,37.88
2023-05-14T07:13:23.274Z,37.12
2023-05-14T07:15:51.696Z,35.87
2023-05-14T07:18:20.294Z,36.81
2023-05-14T07:20:49.266Z,35.86
2023-05-14T07:23:19.748Z,35.64
2023-05-14T07:25:48.478Z,35.50
2023-05-14T07:28:17.379Z,35.11
2023-05-14T07:30:45.860Z,35.12
2023-05-14T07:33:14.642Z,34.92
2023-05-14T07:35:43.325Z,34.19
2023-05-14T07:38:12.014Z,33.78
2023-05-14T07:40:40.601Z,34.21
2023-05-14T07:43:10.916Z,35.40
2023-05-14T07:45:39.708Z,34.82
2023-05-14T07:48:08.784Z,34.57
2023-05-14T07:50:37.909Z,33.31
2023-05-14T07:53:06.487Z,33.44
2023-05-14T07:55:35.403Z,33.69
2023-05-14T07:58:03.959Z,33.31
2023-05-14T08:00:34.281Z,33.36
2023-05-14T08:03:03.191Z,32.39
2023-05-14T08:05:33.283Z,32.80
2023-05-14T08:08:01.871Z,32.09
2023-05-14T08:10:33.462Z,32.28
2023-05-14T08:13:02.313Z,32.50
2023-05-14T08:15:31.117Z,31.24
2023-05-14T08:18:04.527Z,31.95
2023-05-14T08:20:33.196Z,32.25
2023-05-14T08:23:01.886Z,33.41
2023-05-14T08:25:31.079Z,32.38
2023-05-14T08:28:00.481Z,32.15
2023-05-14T08:30:29.260Z,32.67
2023-05-14T08:32:58.700Z,33.16
2023-05-14T08:35:27.247Z,32.92
2023-05-14T08:37:57.417Z,33.36
2023-05-14T08:40:26.888Z,32.92
2023-05-14T08:42:57.165Z,32.65
2023-05-14T08:45:29.477Z,32.27
2023-05-14T08:47:59.179Z,32.09
2023-05-14T08:50:30.596Z,32.34
2023-05-14T08:52:59.544Z,31.60
2023-05-14T08:55:28.610Z,31.56
2023-05-14T08:57:58.317Z,31.49
2023-05-14T09:00:27.361Z,31.10
2023-05-14T09:02:56.417Z,31.51
2023-05-14T09:05:25.194Z,31.08
2023-05-14T09:07:53.875Z,30.90
2023-05-14T09:10:23.324Z,30.80
2023-05-14T09:12:52.172Z,31.14
2023-05-14T09:15:21.167Z,31.28
2023-05-14T09:17:49.831Z,30.18
2023-05-14T09:20:19.791Z,30.07
2023-05-14T09:22:53.178Z,29.74
2023-05-14T09:25:27.173Z,30.34
2023-05-14T09:27:59.105Z,30.46
2023-05-14T09:30:27.921Z,30.03
2023-05-14T09:32:56.547Z,29.26
2023-05-14T09:35:25.413Z,28.83
2023-05-14T09:37:54.928Z,29.41
2023-05-14T09:40:24.643Z,29.23
2023-05-14T09:42:55.249Z,29.19
2023-05-14T09:45:24.536Z,29.78
2023-05-14T09:47:53.829Z,30.27
2023-05-14T09:50:22.681Z,30.58
2023-05-14T09:52:51.924Z,30.90
2023-05-14T09:55:21.139Z,30.09
2023-05-14T09:57:50.327Z,30.55
2023-05-14T10:00:19.628Z,30.72
2023-05-14T10:02:51.602Z,30.73
2023-05-14T10:05:21.654Z,30.18
2023-05-14T10:07:52.147Z,30.01
2023-05-14T10:10:21.646Z,30.71
2023-05-14T10:12:57.594Z,31.45
2023-05-14T10:15:34.053Z,31.61
2023-05-14T10:18:04.628Z,30.81
2023-05-14T10:20:33.378Z,31.09
2023-05-14T10:23:02.167Z,31.05
2023-05-14T10:25:31.049Z,31.05
2023-05-14T10:27:59.855Z,30.75
2023-05-14T10:30:28.619Z,31.22
2023-05-14T10:33:07.769Z,31.09
2023-05-14T10:35:54.876Z,30.31
2023-05-14T10:38:27.563Z,28.52
2023-05-14T10:41:06.484Z,28.78
2023-05-14T10:43:39.158Z,29.79
2023-05-14T10:46:08.771Z,30.41
2023-05-14T10:48:38.155Z,30.43
2023-05-14T10:51:08.039Z,29.67
2023-05-14T10:53:40.971Z,29.05
2023-05-14T10:56:11.335Z,28.72
2023-05-14T10:58:41.615Z,29.09
2023-05-14T11:01:11.156Z,28.85
2023-05-14T11:03:44.298Z,28.10
2023-05-14T11:06:15.527Z,28.79
2023-05-14T11:08:44.964Z,29.46
2023-05-14T11:11:13.871Z,28.35
2023-05-14T11:13:43.174Z,28.44
2023-05-14T11:16:22.602Z,28.37
2023-05-14T11:19:03.782Z,28.72
2023-05-14T11:21:35.295Z,28.74
2023-05-14T11:24:05.666Z,28.78
2023-05-14T11:26:34.625Z,28.75
2023-05-14T11:29:03.636Z,28.76
2023-05-14T11:31:32.159Z,28.28
2023-05-14T11:34:01.315Z,27.80
2023-05-14T11:36:29.800Z,27.76
2023-05-14T11:38:58.271Z,27.50
2023-05-14T11:41:28.431Z,28.11
2023-05-14T11:43:57.376Z,28.01
2023-05-14T11:46:26.614Z,27.39
2023-05-14T11:48:55.068Z,27.87
2023-05-14T11:51:24.976Z,27.88
2023-05-14T11:53:54.581Z,28.21
2023-05-14T11:56:22.953Z,28.94
2023-05-14T11:58:56.153Z,29.54
2023-05-14T12:01:25.145Z,29.93
2023-05-14T12:03:53.902Z,29.72
2023-05-14T12:06:30.915Z,29.57
2023-05-14T12:09:01.805Z,30.27
2023-05-14T12:11:33.912Z,31.13
2023-05-14T12:14:02.514Z,31.48
2023-05-14T12:16:35.544Z,31.74
2023-05-14T12:19:06.372Z,32.31
2023-05-14T12:21:35.413Z,32.24
2023-05-14T12:24:05.520Z,32.51
2023-05-14T12:26:34.425Z,33.15
2023-05-14T12:29:04.655Z,33.38
2023-05-14T12:31:33.905Z,33.69
2023-05-14T12:34:03.039Z,33.83
2023-05-14T12:36:33.156Z,34.27
2023-05-14T12:39:03.816Z,34.28
2023-05-14T12:41:32.993Z,34.31
2023-05-14T12:44:03.112Z,34.29
2023-05-14T12:46:31.961Z,35.06
2023-05-14T12:49:00.590Z,34.93
2023-05-14T12:51:29.170Z,34.49
2023-05-14T12:53:57.638Z,34.97
2023-05-14T12:56:28.703Z,34.64
2023-05-14T12:58:57.366Z,34.93
2023-05-14T13:01:25.775Z,34.98
2023-05-14T13:03:55.919Z,35.16
2023-05-14T13:06:24.556Z,34.92
2023-05-14T13:08:53.349Z,35.00
2023-05-14T13:11:23.159Z,34.73
2023-05-14T13:13:51.945Z,34.91
2023-05-14T13:16:20.354Z,34.95
2023-05-14T13:18:49.036Z,35.04
2023-05-14T13:21:17.585Z,34.95
2023-05-14T13:23:46.383Z,34.98
2023-05-14T13:26:15.375Z,35.38
2023-05-14T13:28:44.061Z,35.43
2023-05-14T13:31:13.618Z,35.12
2023-05-14T13:33:43.206Z,34.99
2023-05-14T13:36:13.707Z,35.22
2023-05-14T13:38:42.753Z,36.69
2023-05-14T13:41:12.498Z,37.69
2023-05-14T13:43:41.184Z,38.77
2023-05-14T13:46:09.685Z,39.38
2023-05-14T13:48:38.250Z,40.71
2023-05-14T13:51:06.934Z,41.32
2023-05-14T13:53:35.727Z,42.67
2023-05-14T13:56:06.961Z,43.12
2023-05-14T13:58:35.765Z,43.47
2023-05-14T14:01:04.951Z,44.06
2023-05-14T14:03:33.637Z,43.72
2023-05-14T14:06:02.136Z,44.27
2023-05-14T14:08:31.529Z,44.95
2023-05-14T14:11:01.143Z,44.72
2023-05-14T14:13:29.931Z,44.64
2023-05-14T14:15:58.544Z,45.00
2023-05-14T14:18:27.199Z,46.22
2023-05-14T14:20:56.998Z,46.03
2023-05-14T14:23:25.796Z,45.57
2023-05-14T14:25:54.685Z,44.94
2023-05-14T14:28:23.388Z,45.14
2023-05-14T14:30:51.844Z,44.54
2023-05-14T14:33:20.238Z,44.50
2023-05-14T14:35:48.860Z,44.29
2023-05-14T14:38:17.900Z,45.32
2023-05-14T14:40:47.035Z,45.20
2023-05-14T14:43:15.788Z,43.89
2023-05-14T14:45:48.244Z,42.74
2023-05-14T14:48:32.094Z,41.61
2023-05-14T14:51:03.552Z,38.07
2023-05-14T14:53:33.499Z,37.70
2023-05-14T14:56:02.157Z,37.20
2023-05-14T14:58:31.550Z,36.25
2023-05-14T15:01:01.746Z,36.05
2023-05-14T15:03:30.480Z,35.77
2023-05-14T15:05:59.565Z,36.17
2023-05-14T15:08:28.346Z,36.56
2023-05-14T15:10:56.853Z,36.54
2023-05-14T15:13:26.022Z,36.40
2023-05-14T15:15:56.150Z,36.87
2023-05-14T15:18:24.527Z,36.45
2023-05-14T15:20:53.315Z,36.78
2023-05-14T15:23:23.027Z,36.87
2023-05-14T15:25:51.915Z,37.26
2023-05-14T15:28:21.013Z,37.23
2023-05-14T15:30:49.697Z,37.38
2023-05-14T15:33:19.842Z,37.68
2023-05-14T15:35:48.410Z,37.53
2023-05-14T15:38:16.989Z,37.59
2023-05-14T15:40:45.611Z,37.48
2023-05-14T15:43:15.016Z,37.48
2023-05-14T15:45:45.085Z,37.66
2023-05-14T15:48:13.898Z,37.91
2023-05-14T15:50:42.659Z,37.71
2023-05-14T15:53:11.042Z,37.82
2023-05-14T15:55:39.920Z,37.74
2023-05-14T15:58:08.608Z,37.47
2023-05-14T16:00:37.189Z,37.86
2023-05-14T16:03:06.761Z,37.78
2023-05-14T16:05:36.832Z,37.38
2023-05-14T16:08:05.708Z,37.08
2023-05-14T16:10:34.500Z,37.07
2023-05-14T16:13:03.007Z,37.17
2023-05-14T16:15:31.766Z,37.43
2023-05-14T16:18:00.678Z,37.64
2023-05-14T16:20:29.236Z,37.62
2023-05-14T16:22:58.265Z,37.84
2023-05-14T16:25:26.704Z,37.76
2023-05-14T16:27:55.708Z,38.22
2023-05-14T16:30:24.415Z,38.37
2023-05-14T16:32:53.299Z,38.30
2023-05-14T16:35:22.375Z,38.29
2023-05-14T16:37:51.174Z,38.29
2023-05-14T16:40:20.125Z,38.46
2023-05-14T16:42:49.431Z,38.44
2023-05-14T16:45:19.361Z,38.45
2023-05-14T16:47:47.998Z,38.64
2023-05-14T16:50:16.840Z,38.71
2023-05-14T16:52:45.535Z,38.65
2023-05-14T16:55:14.101Z,38.65
2023-05-14T16:57:44.115Z,39.04
2023-05-14T17:00:12.887Z,38.67
2023-05-14T17:02:42.036Z,38.97
2023-05-14T17:05:10.790Z,39.35
2023-05-14T17:07:40.017Z,39.71
2023-05-14T17:10:08.789Z,39.67
2023-05-14T17:12:37.461Z,39.80
2023-05-14T17:15:06.854Z,39.93
2023-05-14T17:17:35.409Z,40.03
2023-05-14T17:20:06.035Z,40.04
2023-05-14T17:22:34.860Z,40.21
2023-05-14T17:25:03.748Z,40.25
2023-05-14T17:27:33.661Z,40.05
2023-05-14T17:30:02.663Z,40.15
2023-05-14T17:32:31.593Z,40.18
2023-05-14T17:35:00.349Z,40.29
2023-05-14T17:37:29.126Z,40.33
2023-05-14T17:39:57.805Z,40.18
2023-05-14T17:42:26.498Z,40.19
2023-05-14T17:44:55.163Z,40.15
2023-05-14T17:47:23.861Z,40.20
2023-05-14T17:49:52.249Z,39.86
2023-05-14T17:52:21.039Z,40.25
2023-05-14T17:54:49.631Z,40.19
2023-05-14T17:57:18.213Z,40.29
2023-05-14T17:59:46.802Z,40.32
2023-05-14T18:02:15.373Z,40.44
2023-05-14T18:04:43.965Z,40.60
2023-05-14T18:07:12.856Z,40.77
2023-05-14T18:09:41.577Z,41.06
2023-05-14T18:12:10.222Z,41.03
2023-05-14T18:14:38.721Z,41.30
2023-05-14T18:17:07.474Z,41.57
2023-05-14T18:19:37.310Z,41.68
2023-05-14T18:22:05.790Z,41.83
2023-05-14T18:24:34.378Z,42.25
2023-05-14T18:27:03.074Z,42.28
2023-05-14T18:29:31.449Z,42.25
2023-05-14T18:31:59.836Z,42.84
2023-05-14T18:34:28.409Z,42.93
2023-05-14T18:36:57.907Z,43.10
2023-05-14T18:39:26.389Z,43.39
2023-05-14T18:41:56.807Z,43.23
2023-05-14T18:44:25.498Z,43.36
2023-05-14T18:46:54.902Z,43.55
2023-05-14T18:49:23.276Z,43.65
2023-05-14T18:51:52.062Z,43.82
2023-05-14T18:54:20.442Z,44.28
2023-05-14T18:56:49.127Z,44.07
2023-05-14T18:59:17.708Z,44.05
2023-05-14T19:01:46.036Z,44.19
2023-05-14T19:04:14.768Z,44.14
2023-05-14T19:06:43.358Z,44.34
2023-05-14T19:09:11.842Z,44.42
2023-05-14T19:11:40.209Z,44.48
2023-05-14T19:14:09.611Z,44.31
2023-05-14T19:16:38.103Z,44.50
2023-05-14T19:19:06.813Z,44.85
2023-05-14T19:21:35.328Z,44.86
2023-05-14T19:24:04.049Z,44.91
2023-05-14T19:26:32.744Z,45.09
2023-05-14T19:29:01.116Z,45.18
2023-05-14T19:31:29.740Z,45.05
2023-05-14T19:33:58.495Z,45.13
2023-05-14T19:36:26.887Z,45.26
2023-05-14T19:38:55.343Z,45.69
2023-05-14T19:41:23.822Z,45.71
2023-05-14T19:43:52.304Z,45.93
2023-05-14T19:46:21.257Z,45.93
2023-05-14T19:48:49.980Z,46.11
2023-05-14T19:51:18.577Z,46.33
2023-05-14T19:53:47.148Z,46.56
2023-05-14T19:56:16.352Z,46.47
2023-05-14T19:58:45.134Z,46.59
2023-05-14T20:01:14.805Z,46.96
2023-05-14T20:03:43.736Z,46.79
2023-05-14T20:06:12.621Z,47.12
2023-05-14T20:08:41.414Z,47.31
2023-05-14T20:11:10.109Z,47.34
2023-05-14T20:13:38.699Z,47.54
2023-05-14T20:16:07.279Z,47.71
2023-05-14T20:18:36.597Z,47.97
2023-05-14T20:21:07.197Z,48.05
2023-05-14T20:23:35.677Z,48.10
2023-05-14T20:26:04.482Z,48.37
2023-05-14T20:28:32.918Z,49.15
2023-05-14T20:31:04.293Z,48.94
2023-05-14T20:33:32.902Z,48.94
2023-05-14T20:36:04.839Z,48.94
2023-05-14T20:38:35.267Z,48.97
2023-05-14T20:41:03.755Z,49.15
2023-05-14T20:43:32.759Z,49.39
2023-05-14T20:46:01.571Z,49.46
2023-05-14T20:48:30.629Z,49.39
2023-05-14T20:50:59.513Z,49.67
2023-05-14T20:53:29.335Z,49.54
2023-05-14T20:55:59.647Z,50.03
2023-05-14T20:58:28.363Z,50.48
2023-05-14T21:00:58.002Z,50.17
2023-05-14T21:03:28.013Z,50.13
2023-05-14T21:05:57.384Z,50.50
2023-05-14T21:08:26.382Z,50.92
2023-05-14T21:13:24.245Z,51.57
2023-05-14T21:15:52.860Z,51.90
2023-05-14T21:18:21.406Z,51.66
2023-05-14T21:20:49.987Z,51.57
2023-05-14T21:23:20.219Z,51.52
2023-05-14T21:25:48.801Z,51.31
2023-05-14T21:28:17.301Z,51.09
2023-05-14T21:30:47.108Z,51.10
2023-05-14T21:33:16.489Z,50.93
2023-05-14T21:35:45.284Z,50.74
2023-05-14T21:38:14.376Z,50.72
2023-05-14T21:40:43.475Z,50.82
2023-05-14T21:43:13.187Z,50.72
2023-05-14T21:45:44.122Z,50.86
2023-05-14T21:48:14.332Z,50.83
2023-05-14T21:50:43.358Z,51.08
2023-05-14T21:53:12.120Z,51.10
2023-05-14T21:55:42.154Z,51.40
2023-05-14T21:58:12.879Z,51.64
2023-05-14T22:00:42.201Z,51.47
2023-05-14T22:03:12.741Z,51.95
2023-05-14T22:05:42.749Z,51.95
2023-05-14T22:08:11.816Z,52.15
2023-05-14T22:10:40.604Z,52.24
2023-05-14T22:13:10.424Z,52.39
2023-05-14T22:15:39.552Z,52.34
2023-05-14T22:18:08.429Z,52.27
2023-05-14T22:20:37.095Z,52.00
2023-05-14T22:23:06.176Z,52.27
2023-05-14T22:25:36.322Z,51.94
2023-05-14T22:28:06.115Z,52.07
2023-05-14T22:30:34.933Z,52.19
2023-05-14T22:33:05.079Z,52.17
2023-05-14T22:35:34.906Z,52.05
2023-05-14T22:38:05.272Z,52.10
2023-05-14T22:40:34.372Z,52.11
2023-05-14T22:43:03.149Z,52.22
2023-05-14T22:45:32.871Z,52.02
2023-05-14T22:48:02.709Z,52.24
2023-05-14T22:50:32.817Z,52.24
2023-05-14T22:53:02.294Z,52.40
2023-05-14T22:55:32.203Z,52.19
2023-05-14T22:58:00.989Z,52.33
2023-05-14T23:00:30.720Z,52.65
2023-05-14T23:03:00.337Z,52.58
2023-05-14T23:05:29.719Z,52.61
2023-05-14T23:07:59.307Z,52.51
2023-05-14T23:10:28.403Z,52.46
2023-05-14T23:12:57.301Z,52.64
2023-05-14T23:15:27.219Z,53.00
2023-05-14T23:17:58.924Z,53.12
2023-05-14T23:20:29.323Z,53.17
2023-05-14T23:22:59.693Z,53.34
2023-05-14T23:25:29.797Z,53.17
2023-05-14T23:28:02.072Z,53.16
2023-05-14T23:30:32.264Z,53.20
2023-05-14T23:33:03.116Z,53.04
2023-05-14T23:35:32.399Z,53.01
2023-05-14T23:38:03.823Z,52.86
2023-05-14T23:40:34.349Z,53.02
2023-05-14T23:43:04.364Z,53.51
2023-05-14T23:45:34.498Z,53.66
2023-05-14T23:48:04.127Z,53.46
2023-05-14T23:50:34.241Z,53.21
2023-05-14T23:53:03.728Z,53.42
2023-05-14T23:55:34.047Z,53.89
2023-05-14T23:58:04.346Z,54.17
